Time;durP1;ratioP1;P1;durP2;ratioP2;P2;SDS_P1;SDS_P2;PMS_P1;PMS_P2;Temp;Humidity;BMP_temperature;BMP_pressure;BME280_temperature;BME280_humidity;BME280_pressure;Samples;Min_cycle;Max_cycle;Signal;HPM_P1;HPM_P2
2022/11/21 00:00:53;;;;;;;15.13;11.40;;;7.00;93.00;;;;;;5022993;28;20219;-68
2022/11/21 00:03:20;;;;;;;12.20;10.47;;;7.00;93.00;;;;;;5020060;28;20207;-68
2022/11/21 00:05:48;;;;;;;18.87;12.57;;;7.00;93.10;;;;;;5023718;28;20639;-68
2022/11/21 00:08:18;;;;;;;20.67;13.20;;;7.00;93.10;;;;;;5019063;28;20589;-68
2022/11/21 00:10:45;;;;;;;20.93;14.87;;;7.10;93.20;;;;;;5025351;28;20206;-68
2022/11/21 00:13:19;;;;;;;17.77;12.70;;;7.10;93.30;;;;;;5024216;28;20207;-68
2022/11/21 00:15:46;;;;;;;18.00;11.93;;;7.10;93.40;;;;;;5027837;28;20204;-68
2022/11/21 00:18:14;;;;;;;12.93;11.33;;;7.10;93.40;;;;;;5029643;28;20210;-68
2022/11/21 00:20:42;;;;;;;14.10;10.67;;;7.20;93.20;;;;;;5027640;28;20574;-68
2022/11/21 00:23:10;;;;;;;19.00;14.27;;;7.10;93.00;;;;;;5028329;28;20210;-68
2022/11/21 00:25:37;;;;;;;27.03;16.30;;;7.10;93.00;;;;;;5021306;28;20247;-68
2022/11/21 00:28:05;;;;;;;38.87;19.10;;;7.10;93.10;;;;;;5024534;28;20589;-68
2022/11/21 00:30:32;;;;;;;39.10;19.80;;;7.10;93.20;;;;;;5023018;28;20210;-68
2022/11/21 00:32:59;;;;;;;50.63;21.10;;;7.10;93.30;;;;;;5024169;28;20286;-68
2022/11/21 00:35:26;;;;;;;43.43;22.53;;;7.20;93.40;;;;;;5022945;28;20211;-68
2022/11/21 00:37:53;;;;;;;45.60;23.40;;;7.20;93.50;;;;;;5025955;28;20582;-68
2022/11/21 00:40:20;;;;;;;54.03;25.13;;;7.30;93.60;;;;;;5022545;28;20224;-68
2022/11/21 00:42:47;;;;;;;65.93;26.00;;;7.30;93.60;;;;;;5019165;28;20258;-68
2022/11/21 00:45:15;;;;;;;56.40;27.03;;;7.40;93.70;;;;;;5021306;28;20645;-68
2022/11/21 00:47:48;;;;;;;53.03;27.67;;;7.40;93.80;;;;;;5025142;28;20633;-68
2022/11/21 00:50:15;;;;;;;64.77;27.10;;;7.50;93.80;;;;;;5039700;28;20212;-68
2022/11/21 00:52:42;;;;;;;69.57;27.80;;;7.50;93.90;;;;;;5021163;28;20204;-68
2022/11/21 00:55:09;;;;;;;78.20;29.40;;;7.60;93.90;;;;;;5023036;28;20216;-68
2022/11/21 00:57:36;;;;;;;65.40;26.43;;;7.60;94.00;;;;;;5024038;28;20295;-68
2022/11/21 01:00:04;;;;;;;64.87;27.50;;;7.70;94.00;;;;;;5022112;28;20195;-68
2022/11/21 01:02:32;;;;;;;62.47;27.13;;;7.70;94.10;;;;;;5024007;28;20712;-68
2022/11/21 01:04:59;;;;;;;64.23;28.00;;;7.80;94.40;;;;;;5020585;28;20632;-68
2022/11/21 01:07:26;;;;;;;58.50;28.37;;;7.80;94.10;;;;;;5026930;28;20207;-68
2022/11/21 01:09:53;;;;;;;57.67;26.33;;;7.80;94.20;;;;;;5024021;28;20578;-68
2022/11/21 01:12:20;;;;;;;51.90;27.87;;;7.80;94.20;;;;;;5018011;28;20199;-69
2022/11/21 01:14:47;;;;;;;51.47;27.07;;;7.80;94.20;;;;;;5022350;28;20226;-69
2022/11/21 01:17:14;;;;;;;38.30;25.87;;;7.80;94.20;;;;;;5025286;28;20211;-69
2022/11/21 01:19:41;;;;;;;41.20;27.40;;;7.80;94.20;;;;;;5024308;28;20278;-68
2022/11/21 01:22:08;;;;;;;44.50;27.33;;;7.90;94.30;;;;;;5029159;28;20215;-68
2022/11/21 01:24:35;;;;;;;40.00;26.87;;;7.80;94.30;;;;;;5032988;28;20268;-68
2022/11/21 01:27:02;;;;;;;37.07;25.07;;;7.80;94.30;;;;;;5023468;28;20238;-68
2022/11/21 01:29:29;;;;;;;45.03;27.90;;;7.80;94.30;;;;;;5018536;28;20204;-68
2022/11/21 01:31:56;;;;;;;40.93;27.97;;;7.80;94.30;;;;;;5023334;28;20260;-68
2022/11/21 01:34:23;;;;;;;40.57;27.57;;;7.80;94.30;;;;;;5024191;28;20203;-68
2022/11/21 01:36:51;;;;;;;43.40;29.80;;;7.80;94.40;;;;;;5023754;28;20199;-70
2022/11/21 01:39:18;;;;;;;53.90;29.10;;;7.80;94.40;;;;;;5020289;28;20262;-69
2022/11/21 01:41:45;;;;;;;47.63;30.10;;;7.80;94.70;;;;;;5021534;28;20235;-69
2022/11/21 01:44:20;;;;;;;46.40;28.53;;;7.90;94.50;;;;;;5018552;28;20199;-68
2022/11/21 01:46:49;;;;;;;47.47;30.50;;;7.90;94.50;;;;;;5022295;28;20195;-69
2022/11/21 01:49:25;;;;;;;44.17;30.57;;;7.90;94.50;;;;;;5025531;28;20191;-69
2022/11/21 01:52:00;;;;;;;47.07;31.33;;;7.90;94.50;;;;;;5026003;28;20195;-69
2022/11/21 01:54:35;;;;;;;50.07;29.87;;;7.90;94.50;;;;;;5020254;28;20196;-69
2022/11/21 01:57:05;;;;;;;47.83;31.43;;;7.90;94.50;;;;;;5021183;28;20539;-69
2022/11/21 01:59:46;;;;;;;46.30;29.60;;;7.80;94.50;;;;;;5022675;28;20204;-69
2022/11/21 02:02:16;;;;;;;45.57;29.33;;;7.80;94.50;;;;;;5029241;28;20664;-68
2022/11/21 02:04:44;;;;;;;44.90;30.47;;;7.80;94.50;;;;;;5028647;28;20200;-68
2022/11/21 02:07:13;;;;;;;47.30;30.87;;;7.80;94.40;;;;;;5021314;28;20200;-68
2022/11/21 02:09:44;;;;;;;47.57;30.33;;;7.70;94.40;;;;;;5021935;28;20223;-68
2022/11/21 02:12:25;;;;;;;43.80;27.27;;;7.70;94.40;;;;;;5040597;28;20207;-68
2022/11/21 02:14:53;;;;;;;44.60;28.33;;;7.60;94.40;;;;;;5021284;28;20203;-68
2022/11/21 02:17:20;;;;;;;45.87;30.03;;;7.50;94.30;;;;;;5019456;28;20208;-68
2022/11/21 02:20:00;;;;;;;44.63;28.40;;;7.50;94.30;;;;;;5026607;28;20261;-68
2022/11/21 02:23:11;;;;;;;47.37;30.17;;;7.40;94.30;;;;;;5023723;28;20270;-69
2022/11/21 02:25:41;;;;;;;49.77;30.13;;;7.40;94.30;;;;;;4986264;28;20244;-68
2022/11/21 02:28:13;;;;;;;48.60;29.37;;;7.30;94.30;;;;;;5017022;28;20225;-68
2022/11/21 02:30:41;;;;;;;38.03;26.47;;;7.20;94.30;;;;;;5024767;28;20222;-70
2022/11/21 02:33:10;;;;;;;47.37;28.30;;;7.20;94.30;;;;;;5019823;28;20199;-68
2022/11/21 02:35:38;;;;;;;44.83;28.47;;;7.20;94.30;;;;;;5024042;28;20205;-69
2022/11/21 02:38:30;;;;;;;40.43;27.60;;;7.10;94.30;;;;;;5016940;28;20195;-68
2022/11/21 02:41:08;;;;;;;43.87;28.27;;;7.10;94.30;;;;;;5021213;28;20580;-68
2022/11/21 02:43:43;;;;;;;43.90;29.00;;;7.00;94.30;;;;;;5027010;28;20211;-68
2022/11/21 02:46:10;;;;;;;42.03;26.90;;;7.00;94.30;;;;;;5023575;28;20545;-69
2022/11/21 02:48:38;;;;;;;50.77;30.27;;;6.90;94.30;;;;;;5024508;28;20192;-69
2022/11/21 02:51:05;;;;;;;45.33;28.83;;;6.90;94.40;;;;;;5022534;28;20215;-68
2022/11/21 02:53:32;;;;;;;41.20;26.70;;;6.90;94.40;;;;;;5024548;28;20211;-68
2022/11/21 02:55:59;;;;;;;42.07;27.77;;;6.90;94.40;;;;;;5022563;28;20250;-69
2022/11/21 02:58:26;;;;;;;43.03;27.43;;;6.90;94.40;;;;;;5023830;28;20575;-69
2022/11/21 03:00:54;;;;;;;40.10;26.53;;;6.90;94.30;;;;;;5021414;28;20524;-68
2022/11/21 03:03:21;;;;;;;44.00;28.60;;;6.90;94.20;;;;;;5023497;28;20209;-68
2022/11/21 03:05:48;;;;;;;44.93;30.10;;;6.80;94.20;;;;;;5019916;28;20231;-68
2022/11/21 03:08:15;;;;;;;49.03;31.40;;;6.80;94.10;;;;;;5022367;28;20203;-68
2022/11/21 03:10:42;;;;;;;39.73;28.03;;;6.80;94.10;;;;;;5024557;28;20203;-69
2022/11/21 03:13:09;;;;;;;41.20;27.90;;;6.70;94.20;;;;;;5020327;28;20273;-68
2022/11/21 03:15:36;;;;;;;41.87;27.53;;;6.70;94.20;;;;;;5020478;28;20521;-69
2022/11/21 03:18:04;;;;;;;38.20;27.93;;;6.70;94.20;;;;;;5019487;28;20195;-69
2022/11/21 03:20:33;;;;;;;42.63;27.00;;;6.60;94.20;;;;;;5023453;28;20231;-68
2022/11/21 03:23:01;;;;;;;42.63;28.00;;;6.60;94.20;;;;;;5023382;28;20211;-69
2022/11/21 03:25:28;;;;;;;39.47;27.27;;;6.50;94.20;;;;;;5028273;28;20243;-68
2022/11/21 03:27:55;;;;;;;45.43;27.50;;;6.50;94.20;;;;;;5020616;28;20204;-68
2022/11/21 03:30:24;;;;;;;43.27;27.87;;;6.50;94.20;;;;;;5021429;28;20199;-69
2022/11/21 03:32:54;;;;;;;46.00;28.77;;;6.40;94.20;;;;;;5022562;28;20212;-69
2022/11/21 03:35:21;;;;;;;47.07;30.20;;;6.40;94.10;;;;;;5021989;28;20203;-68
2022/11/21 03:37:48;;;;;;;43.67;26.77;;;6.30;94.10;;;;;;5022408;28;20204;-68
2022/11/21 03:40:15;;;;;;;42.83;26.03;;;6.30;94.10;;;;;;5020395;28;20557;-68
2022/11/21 03:42:43;;;;;;;39.97;26.17;;;6.30;94.20;;;;;;5022226;28;20652;-68
2022/11/21 03:45:10;;;;;;;40.10;26.33;;;6.20;94.20;;;;;;5022762;28;20525;-68
2022/11/21 03:47:37;;;;;;;38.23;25.73;;;6.20;94.40;;;;;;5024178;28;20267;-68
2022/11/21 03:50:04;;;;;;;31.77;22.57;;;6.10;94.50;;;;;;5021448;28;20637;-68
2022/11/21 03:52:32;;;;;;;92.57;23.23;;;6.10;94.50;;;;;;5020216;28;20256;-69
2022/11/21 03:54:59;;;;;;;36.37;21.17;;;6.10;94.60;;;;;;5022363;28;20229;-69
2022/11/21 03:57:26;;;;;;;41.90;21.80;;;6.10;94.50;;;;;;5025694;28;20655;-68
2022/11/21 03:59:53;;;;;;;33.03;22.70;;;6.10;94.50;;;;;;5031185;28;20525;-69
2022/11/21 04:02:20;;;;;;;32.50;21.87;;;6.00;94.60;;;;;;5019725;28;20215;-68
2022/11/21 04:04:47;;;;;;;33.60;20.93;;;6.00;94.60;;;;;;5019723;28;20215;-68
2022/11/21 04:07:15;;;;;;;34.63;20.37;;;6.00;94.70;;;;;;5022297;28;20209;-69
2022/11/21 04:09:42;;;;;;;25.70;20.73;;;6.10;94.80;;;;;;5017980;28;20528;-68
2022/11/21 04:12:09;;;;;;;28.83;20.40;;;6.10;94.80;;;;;;5024594;28;20199;-69
2022/11/21 04:14:36;;;;;;;30.97;21.43;;;6.10;94.80;;;;;;5019127;28;20203;-68
2022/11/21 04:17:03;;;;;;;33.40;20.70;;;6.10;94.80;;;;;;5020613;28;20271;-68
2022/11/21 04:19:30;;;;;;;31.30;21.57;;;6.10;94.80;;;;;;5022895;28;20289;-68
2022/11/21 04:21:57;;;;;;;36.80;20.93;;;6.20;94.80;;;;;;5019865;28;20226;-69
2022/11/21 04:24:24;;;;;;;38.17;23.63;;;6.10;94.80;;;;;;5020736;28;20230;-68
2022/11/21 04:26:54;;;;;;;37.33;23.40;;;6.20;94.90;;;;;;5022802;28;20581;-68
2022/11/21 04:29:21;;;;;;;47.60;24.77;;;6.20;95.00;;;;;;5021188;28;20209;-68
2022/11/21 04:31:48;;;;;;;54.07;24.37;;;6.20;95.00;;;;;;5022225;28;20202;-68
2022/11/21 04:34:15;;;;;;;35.67;23.03;;;6.20;95.00;;;;;;5020393;28;20200;-68
2022/11/21 04:36:42;;;;;;;42.13;23.10;;;6.30;95.00;;;;;;5018236;28;20196;-69
2022/11/21 04:39:09;;;;;;;40.53;23.50;;;6.30;95.00;;;;;;5021599;28;20605;-68
2022/11/21 04:41:36;;;;;;;58.03;25.67;;;6.30;95.00;;;;;;5023163;28;20250;-68
2022/11/21 04:44:03;;;;;;;75.87;23.77;;;6.30;94.90;;;;;;5017765;28;20192;-68
2022/11/21 04:46:30;;;;;;;56.80;24.67;;;6.30;94.90;;;;;;5022170;28;20208;-68
2022/11/21 04:48:57;;;;;;;64.67;24.63;;;6.30;94.80;;;;;;5021899;28;20206;-68
2022/11/21 04:51:24;;;;;;;38.47;22.83;;;6.30;94.90;;;;;;5022181;28;20243;-69
2022/11/21 04:53:51;;;;;;;34.57;21.47;;;6.30;94.90;;;;;;5037518;28;20675;-68
2022/11/21 04:56:18;;;;;;;59.43;22.40;;;6.40;95.00;;;;;;5021695;28;20238;-68
2022/11/21 04:58:45;;;;;;;45.67;20.67;;;6.40;95.00;;;;;;5023101;28;20230;-68
2022/11/21 05:01:12;;;;;;;59.90;21.47;;;6.30;94.90;;;;;;5023969;28;20589;-68
2022/11/21 05:03:39;;;;;;;41.67;21.17;;;6.30;94.80;;;;;;5025303;28;20223;-68
2022/11/21 05:06:07;;;;;;;46.77;18.57;;;6.30;94.70;;;;;;5024628;28;20721;-68
2022/11/21 05:08:33;;;;;;;76.83;18.30;;;6.20;94.70;;;;;;5022211;28;20196;-68
2022/11/21 05:13:46;;;;;;;47.20;19.70;;;6.10;94.60;;;;;;5023068;28;20620;-69
2022/11/21 05:16:13;;;;;;;69.87;21.13;;;6.10;94.60;;;;;;5023453;28;20210;-68
2022/11/21 05:18:40;;;;;;;64.40;21.27;;;6.00;94.50;;;;;;5027489;28;20203;-68
2022/11/21 05:21:07;;;;;;;35.37;18.43;;;6.00;94.60;;;;;;5022777;28;20273;-68
2022/11/21 05:23:34;;;;;;;48.67;19.70;;;5.90;94.60;;;;;;5026186;28;20218;-68
2022/11/21 05:26:01;;;;;;;56.60;20.93;;;5.90;94.60;;;;;;5025980;28;20217;-68
2022/11/21 05:28:28;;;;;;;43.17;20.00;;;5.90;94.60;;;;;;5025473;28;20280;-68
2022/11/21 05:30:55;;;;;;;40.93;20.77;;;5.80;94.70;;;;;;5023562;28;20246;-68
2022/11/21 05:33:22;;;;;;;47.80;19.20;;;5.80;94.80;;;;;;5022227;28;20212;-68
2022/11/21 05:35:49;;;;;;;35.33;18.67;;;5.80;94.80;;;;;;5021602;28;20584;-68
2022/11/21 05:38:17;;;;;;;47.93;19.07;;;5.80;94.80;;;;;;5023950;28;20219;-68
2022/11/21 05:40:44;;;;;;;46.63;19.27;;;5.80;94.70;;;;;;5021863;28;20199;-68
2022/11/21 05:45:57;;;;;;;36.50;19.77;;;5.70;94.60;;;;;;5020716;28;20200;-68
2022/11/21 05:48:24;;;;;;;42.90;17.30;;;5.70;94.60;;;;;;5024637;28;20278;-68
2022/11/21 05:50:51;;;;;;;32.97;16.17;;;5.70;94.50;;;;;;5022759;28;20652;-68
2022/11/21 05:53:18;;;;;;;36.63;17.00;;;5.60;94.30;;;;;;5022744;28;20211;-69
2022/11/21 05:55:45;;;;;;;32.97;17.10;;;5.50;94.20;;;;;;5023687;28;20206;-68
2022/11/21 05:58:13;;;;;;;38.60;16.33;;;5.50;94.20;;;;;;5020735;28;20224;-68
2022/11/21 06:00:40;;;;;;;27.60;17.07;;;5.40;94.30;;;;;;5023800;28;20202;-68
2022/11/21 06:03:29;;;;;;;40.23;16.97;;;5.40;94.30;;;;;;5022816;28;20231;-68
2022/11/21 06:06:08;;;;;;;19.53;15.90;;;5.40;94.40;;;;;;5025086;28;20197;-68
2022/11/21 06:08:44;;;;;;;38.07;18.60;;;5.30;94.20;;;;;;5019637;28;20199;-68
2022/11/21 06:11:15;;;;;;;19.60;16.17;;;5.30;94.20;;;;;;5021400;28;20207;-68
2022/11/21 06:13:42;;;;;;;175.47;24.77;;;5.30;94.40;;;;;;5024755;28;20264;-68
2022/11/21 06:16:15;;;;;;;44.87;17.83;;;5.20;94.30;;;;;;5031562;28;20202;-68
2022/11/21 06:18:45;;;;;;;25.37;17.70;;;5.20;94.30;;;;;;5028766;28;20196;-67
2022/11/21 06:21:13;;;;;;;32.67;18.33;;;5.20;94.40;;;;;;5024188;28;20222;-69
2022/11/21 06:23:41;;;;;;;33.00;18.73;;;5.20;94.50;;;;;;5025095;28;20242;-70
2022/11/21 06:26:12;;;;;;;37.47;20.73;;;5.30;94.60;;;;;;5035370;28;20613;-69
2022/11/21 06:28:40;;;;;;;48.57;22.63;;;5.30;94.70;;;;;;5031197;28;20210;-69
2022/11/21 06:31:17;;;;;;;43.97;19.00;;;5.30;94.80;;;;;;5041918;28;20205;-69
2022/11/21 06:33:45;;;;;;;47.80;19.50;;;5.40;94.80;;;;;;5025247;28;20199;-69
2022/11/21 06:36:15;;;;;;;74.50;20.40;;;5.40;94.80;;;;;;5023961;28;20206;-69
2022/11/21 06:38:43;;;;;;;104.03;20.30;;;5.40;94.80;;;;;;5023777;28;20214;-69
2022/11/21 06:41:22;;;;;;;79.70;21.47;;;5.40;94.70;;;;;;5022030;28;20202;-69
2022/11/21 06:43:49;;;;;;;68.70;20.27;;;5.40;94.60;;;;;;5021702;28;20207;-69
2022/11/21 06:46:17;;;;;;;100.53;22.57;;;5.40;94.70;;;;;;5024998;28;20206;-69
2022/11/21 06:48:44;;;;;;;77.37;19.77;;;5.40;94.70;;;;;;5023155;28;20192;-69
2022/11/21 06:51:19;;;;;;;75.73;23.10;;;5.40;94.70;;;;;;5039578;28;20296;-69
2022/11/21 06:53:54;;;;;;;85.10;21.77;;;5.50;94.80;;;;;;5022895;28;20205;-69
2022/11/21 06:56:24;;;;;;;114.20;19.97;;;5.50;94.90;;;;;;5024032;28;20202;-68
2022/11/21 06:58:52;;;;;;;116.90;23.63;;;5.60;94.90;;;;;;5021182;28;20290;-69
2022/11/21 07:01:19;;;;;;;102.43;22.93;;;5.60;94.90;;;;;;5020591;28;20202;-69
2022/11/21 07:03:46;;;;;;;102.27;21.67;;;5.60;94.90;;;;;;5020983;28;20644;-69
2022/11/21 07:06:14;;;;;;;58.30;22.40;;;5.70;95.00;;;;;;5020380;28;20641;-69
2022/11/21 07:08:41;;;;;;;86.30;21.33;;;5.70;95.00;;;;;;5020995;28;20199;-69
2022/11/21 07:11:11;;;;;;;72.30;21.80;;;5.80;95.00;;;;;;5019948;28;20524;-69
2022/11/21 07:13:53;;;;;;;90.77;20.60;;;5.80;95.00;;;;;;5023656;28;20225;-69
2022/11/21 07:16:21;;;;;;;60.77;21.77;;;5.90;95.10;;;;;;5017260;28;20213;-69
2022/11/21 07:18:48;;;;;;;125.37;21.13;;;5.90;95.00;;;;;;5020330;28;20245;-69
2022/11/21 07:21:15;;;;;;;81.07;20.93;;;5.90;95.00;;;;;;5020885;28;20645;-69
2022/11/21 07:23:42;;;;;;;68.00;19.83;;;5.90;94.80;;;;;;5018877;28;20628;-69
2022/11/21 07:26:09;;;;;;;45.37;18.97;;;5.90;94.80;;;;;;5017092;28;20573;-69
2022/11/21 07:28:37;;;;;;;55.80;22.33;;;6.00;94.90;;;;;;5024104;28;20218;-69
2022/11/21 07:31:04;;;;;;;67.63;22.47;;;6.00;95.00;;;;;;5018018;28;20206;-69
2022/11/21 07:33:39;;;;;;;42.57;21.83;;;6.10;95.10;;;;;;5018591;28;20658;-69
2022/11/21 07:36:06;;;;;;;48.87;21.97;;;6.10;95.10;;;;;;5019928;28;20568;-69
2022/11/21 07:38:33;;;;;;;59.23;22.70;;;6.20;95.10;;;;;;5019534;28;20261;-69
2022/11/21 07:41:00;;;;;;;41.47;23.10;;;6.30;95.10;;;;;;5023392;28;20207;-69
2022/11/21 07:43:27;;;;;;;44.30;23.87;;;6.30;95.10;;;;;;5021074;28;20227;-69
2022/11/21 07:45:55;;;;;;;47.57;24.73;;;6.40;95.20;;;;;;5016598;28;20204;-69
2022/11/21 07:48:22;;;;;;;47.77;24.43;;;6.50;95.30;;;;;;5022038;28;20204;-69
2022/11/21 07:50:49;;;;;;;43.77;25.30;;;6.60;95.30;;;;;;5020797;28;20261;-69
2022/11/21 07:53:16;;;;;;;42.73;24.67;;;6.70;95.40;;;;;;5021973;28;20637;-69
2022/11/21 07:55:43;;;;;;;46.17;26.63;;;6.80;95.40;;;;;;5022864;28;20207;-69
2022/11/21 07:58:13;;;;;;;46.67;25.80;;;6.90;95.30;;;;;;5016782;28;20204;-69
2022/11/21 08:00:44;;;;;;;42.07;26.47;;;7.00;95.20;;;;;;5020122;28;20254;-69
2022/11/21 08:03:12;;;;;;;38.60;24.97;;;7.10;95.40;;;;;;5018970;28;20220;-69
2022/11/21 08:05:41;;;;;;;34.63;24.03;;;7.30;95.10;;;;;;5019874;28;20530;-69
2022/11/21 08:08:09;;;;;;;35.30;22.43;;;7.40;95.00;;;;;;5022662;28;20202;-69
2022/11/21 08:10:38;;;;;;;33.57;23.33;;;7.40;94.90;;;;;;5022824;28;20624;-69
2022/11/21 08:13:06;;;;;;;35.83;23.50;;;7.50;94.80;;;;;;5020656;28;20199;-68
2022/11/21 08:15:33;;;;;;;33.77;21.53;;;7.60;94.70;;;;;;5023058;28;20575;-69
2022/11/21 08:18:11;;;;;;;29.27;20.93;;;7.70;94.60;;;;;;5023404;28;20200;-69
2022/11/21 08:20:38;;;;;;;25.90;19.50;;;7.80;94.50;;;;;;5025232;28;20206;-69
2022/11/21 08:23:06;;;;;;;27.47;19.63;;;7.90;94.40;;;;;;5020172;28;20212;-65
2022/11/21 08:25:35;;;;;;;29.47;19.23;;;8.00;94.30;;;;;;5024586;28;20289;-69
2022/11/21 08:28:03;;;;;;;28.43;18.17;;;8.10;94.20;;;;;;5022198;28;20205;-66
2022/11/21 08:30:31;;;;;;;28.53;18.20;;;8.10;94.10;;;;;;5016573;28;20208;-69
2022/11/21 08:32:58;;;;;;;24.53;17.13;;;8.30;93.90;;;;;;5024270;28;20216;-65
2022/11/21 08:35:26;;;;;;;22.60;17.07;;;8.30;93.80;;;;;;5027590;28;20247;-66
2022/11/21 08:38:00;;;;;;;23.63;16.90;;;8.40;93.70;;;;;;5037799;28;20212;-66
2022/11/21 08:40:29;;;;;;;24.87;17.47;;;8.50;93.60;;;;;;5025967;28;20199;-65
2022/11/21 08:43:00;;;;;;;22.77;15.30;;;8.60;93.50;;;;;;5029369;28;20234;-66
2022/11/21 08:45:28;;;;;;;21.73;16.23;;;8.70;93.40;;;;;;5025239;28;20212;-68
2022/11/21 08:47:55;;;;;;;20.40;15.30;;;8.70;93.30;;;;;;5030588;28;20199;-67
2022/11/21 08:50:23;;;;;;;23.23;15.43;;;8.90;93.20;;;;;;5024665;28;20207;-65
2022/11/21 08:52:51;;;;;;;20.53;14.80;;;9.00;93.20;;;;;;5025254;28;20279;-66
2022/11/21 08:55:18;;;;;;;22.07;16.07;;;9.10;93.10;;;;;;5024575;28;20262;-68
2022/11/21 08:57:45;;;;;;;23.00;16.80;;;9.20;93.00;;;;;;5039907;28;20259;-66
2022/11/21 09:00:12;;;;;;;22.80;15.30;;;9.30;92.90;;;;;;5025022;28;20509;-68
2022/11/21 09:02:39;;;;;;;21.90;16.33;;;9.40;92.70;;;;;;5027703;28;20322;-66
2022/11/21 09:05:08;;;;;;;26.37;15.10;;;9.50;92.50;;;;;;5018471;28;20206;-65
2022/11/21 09:07:35;;;;;;;22.87;16.53;;;9.60;92.40;;;;;;5021133;28;20540;-66
2022/11/21 09:10:03;;;;;;;20.03;14.93;;;9.70;92.30;;;;;;5023484;28;20250;-64
2022/11/21 09:12:30;;;;;;;19.87;14.67;;;9.80;92.20;;;;;;5023702;28;20198;-65
2022/11/21 09:20:35;;;;;;;25.07;14.77;;;10.00;91.50;;;;;;5022944;28;20559;-65
2022/11/21 09:23:07;;;;;;;21.00;15.60;;;10.10;91.20;;;;;;5023795;28;20224;-66
2022/11/21 09:25:35;;;;;;;20.87;14.80;;;10.20;91.00;;;;;;5021653;28;20689;-67
2022/11/21 09:28:03;;;;;;;20.97;14.70;;;10.30;90.80;;;;;;5022815;28;20289;-66
2022/11/21 09:30:30;;;;;;;22.97;15.17;;;10.30;90.50;;;;;;5025864;28;20238;-67
2022/11/21 09:33:01;;;;;;;22.27;15.07;;;10.40;90.40;;;;;;5023061;28;20290;-66
2022/11/21 09:35:29;;;;;;;21.10;16.00;;;10.50;90.40;;;;;;5020471;28;20222;-66
2022/11/21 09:37:57;;;;;;;22.13;14.23;;;10.60;90.30;;;;;;5023177;28;20200;-66
2022/11/21 09:40:24;;;;;;;21.10;15.20;;;10.60;90.10;;;;;;5025483;28;20626;-65
2022/11/21 09:43:12;;;;;;;24.03;16.20;;;10.70;90.00;;;;;;5021422;28;20198;-65
2022/11/21 09:45:39;;;;;;;21.80;14.90;;;10.80;89.90;;;;;;5018123;28;20278;-65
2022/11/21 09:48:14;;;;;;;18.60;14.40;;;10.90;89.70;;;;;;5027173;28;20261;-67
2022/11/21 09:50:46;;;;;;;25.80;16.03;;;10.90;89.30;;;;;;5021489;28;20208;-67
2022/11/21 09:53:38;;;;;;;21.83;16.10;;;11.00;89.20;;;;;;5028413;28;20250;-67
2022/11/21 09:56:15;;;;;;;23.07;15.27;;;11.10;88.60;;;;;;5027269;28;20690;-67
2022/11/21 09:58:50;;;;;;;25.47;17.60;;;11.20;88.10;;;;;;5014899;28;20536;-65
2022/11/21 10:01:17;;;;;;;28.70;18.37;;;11.20;87.80;;;;;;5022442;28;20206;-66
2022/11/21 10:03:51;;;;;;;26.73;17.57;;;11.30;87.40;;;;;;5023353;28;20237;-66
2022/11/21 10:06:19;;;;;;;24.57;16.53;;;11.30;87.00;;;;;;5022251;28;20207;-65
2022/11/21 10:09:08;;;;;;;25.70;17.73;;;11.30;86.90;;;;;;5022485;28;20199;-67
2022/11/21 10:15:04;;;;;;;22.60;16.47;;;11.50;87.30;;;;;;5024481;28;20634;-65
2022/11/21 10:17:56;;;;;;;24.03;17.17;;;11.50;86.40;;;;;;5027145;28;20284;-66
2022/11/21 10:20:29;;;;;;;26.80;18.03;;;11.60;86.30;;;;;;5039473;28;20207;-66
2022/11/21 10:23:11;;;;;;;29.50;18.73;;;11.70;86.20;;;;;;5024956;28;20503;-68
2022/11/21 10:25:42;;;;;;;27.90;18.47;;;11.70;86.00;;;;;;5038482;28;20250;-66
2022/11/21 10:28:14;;;;;;;26.80;18.23;;;11.70;86.10;;;;;;5025245;28;20203;-67
2022/11/21 10:30:44;;;;;;;24.93;17.83;;;11.80;86.00;;;;;;5027473;28;20198;-67
2022/11/21 10:33:17;;;;;;;28.63;19.23;;;11.80;85.80;;;;;;5023897;28;20198;-65
2022/11/21 10:35:49;;;;;;;33.43;20.70;;;11.90;85.70;;;;;;5023055;28;20232;-65
2022/11/21 10:38:21;;;;;;;28.40;19.97;;;12.00;84.80;;;;;;5023092;28;20297;-65
2022/11/21 10:41:04;;;;;;;33.57;19.57;;;12.10;84.30;;;;;;5021783;28;20203;-67
2022/11/21 10:46:24;;;;;;;28.23;19.23;;;12.20;83.40;;;;;;5021187;28;20216;-66
2022/11/21 10:49:12;;;;;;;31.73;19.97;;;12.20;83.10;;;;;;5021460;28;20213;-66
2022/11/21 10:51:49;;;;;;;27.07;18.43;;;12.30;82.20;;;;;;5019025;28;20206;-66
2022/11/21 10:54:31;;;;;;;27.33;18.90;;;12.40;82.10;;;;;;5023880;28;20205;-66
2022/11/21 10:57:06;;;;;;;24.57;17.23;;;12.50;81.80;;;;;;5026769;28;20217;-66
2022/11/21 10:59:33;;;;;;;27.30;18.27;;;12.50;81.30;;;;;;5024091;28;20528;-67
2022/11/21 11:02:22;;;;;;;26.83;18.07;;;12.60;81.20;;;;;;5025066;28;20222;-64
2022/11/21 11:05:14;;;;;;;28.47;19.80;;;12.70;81.50;;;;;;5021271;28;20280;-67
2022/11/21 11:07:57;;;;;;;25.97;17.37;;;12.80;80.80;;;;;;5021199;28;20194;-66
2022/11/21 11:10:24;;;;;;;28.63;19.37;;;12.90;79.90;;;;;;5023556;28;20198;-65
2022/11/21 11:16:10;;;;;;;26.57;18.27;;;13.10;79.80;;;;;;5023469;28;20202;-65
2022/11/21 11:18:44;;;;;;;28.50;19.20;;;13.30;79.20;;;;;;5022528;28;20646;-66
2022/11/21 11:21:23;;;;;;;29.83;20.10;;;13.40;78.70;;;;;;5021175;28;20523;-66
2022/11/21 11:23:52;;;;;;;25.13;18.40;;;13.40;78.10;;;;;;5024197;28;20235;-67
2022/11/21 11:26:29;;;;;;;28.33;20.47;;;13.60;77.80;;;;;;5020340;28;20755;-66
2022/11/21 11:29:22;;;;;;;32.03;20.63;;;13.60;77.00;;;;;;5020441;28;20225;-67
2022/11/21 11:31:58;;;;;;;32.20;21.70;;;13.60;77.30;;;;;;5037812;28;20296;-65
2022/11/21 11:34:36;;;;;;;32.77;20.40;;;13.70;77.00;;;;;;5021898;28;20208;-65
2022/11/21 11:37:15;;;;;;;30.27;20.53;;;13.70;76.40;;;;;;5020444;28;20202;-68
2022/11/21 11:39:42;;;;;;;33.63;22.43;;;13.70;76.20;;;;;;5020348;28;20302;-65
2022/11/21 11:48:06;;;;;;;30.10;20.00;;;13.80;76.40;;;;;;5024922;28;20200;-65
2022/11/21 11:50:45;;;;;;;31.80;21.73;;;13.80;76.80;;;;;;5039889;28;21080;-65
2022/11/21 11:53:36;;;;;;;26.50;19.43;;;13.80;76.10;;;;;;5023398;28;20194;-66
2022/11/21 11:56:18;;;;;;;27.97;19.70;;;13.80;75.90;;;;;;5020091;28;20190;-66
2022/11/21 11:58:55;;;;;;;29.47;20.20;;;13.80;76.70;;;;;;5021787;28;20206;-67
2022/11/21 12:01:44;;;;;;;28.77;19.93;;;13.90;76.50;;;;;;5022833;28;20200;-67
2022/11/21 12:04:20;;;;;;;32.20;20.57;;;13.90;76.60;;;;;;5021152;28;20218;-65
2022/11/21 12:07:28;;;;;;;27.27;19.73;;;14.00;75.90;;;;;;5020003;28;20199;-65
2022/11/21 12:10:25;;;;;;;31.90;21.23;;;14.00;76.30;;;;;;5019365;28;20227;-67
2022/11/21 12:13:05;;;;;;;29.33;18.87;;;14.10;76.80;;;;;;5022494;28;20214;-66
2022/11/21 12:15:49;;;;;;;26.83;20.17;;;14.10;75.90;;;;;;5025779;28;20202;-65
2022/11/21 12:18:19;;;;;;;24.03;17.73;;;14.20;75.40;;;;;;5027603;28;20562;-66
2022/11/21 12:20:49;;;;;;;27.10;18.90;;;14.20;75.50;;;;;;5026131;28;20237;-66
2022/11/21 12:23:17;;;;;;;27.87;18.47;;;14.30;75.40;;;;;;5022083;28;20202;-66
2022/11/21 12:26:16;;;;;;;24.07;18.07;;;14.30;74.70;;;;;;5022103;28;20246;-66
2022/11/21 12:29:23;;;;;;;26.30;18.13;;;14.30;74.50;;;;;;5018210;28;20222;-66
2022/11/21 12:32:08;;;;;;;25.87;17.97;;;14.20;72.70;;;;;;5021622;28;20638;-66
2022/11/21 12:34:44;;;;;;;25.33;17.57;;;14.20;72.50;;;;;;5019060;28;20267;-66
2022/11/21 12:37:21;;;;;;;28.20;19.03;;;14.10;73.00;;;;;;5025485;28;20266;-66
2022/11/21 12:40:10;;;;;;;28.17;18.10;;;14.10;72.90;;;;;;5023926;28;20218;-65
2022/11/21 12:43:03;;;;;;;29.77;20.23;;;14.10;73.20;;;;;;5019627;28;20209;-65
2022/11/21 12:45:43;;;;;;;23.23;16.30;;;14.10;72.90;;;;;;5020112;28;20350;-66
2022/11/21 12:54:32;;;;;;;24.50;16.37;;;14.10;69.80;;;;;;5024665;28;20274;-66
2022/11/21 12:57:14;;;;;;;23.83;15.10;;;14.10;70.10;;;;;;5019322;28;20203;-66
2022/11/21 13:00:12;;;;;;;25.00;17.60;;;14.10;70.10;;;;;;5021840;28;20214;-64
2022/11/21 13:03:08;;;;;;;22.33;17.27;;;14.10;70.80;;;;;;5019910;28;20848;-64
2022/11/21 13:05:41;;;;;;;22.93;16.53;;;14.10;71.40;;;;;;5016967;28;20663;-67
2022/11/21 13:08:17;;;;;;;25.70;19.00;;;14.10;72.80;;;;;;5019304;28;20207;-67
2022/11/21 13:14:06;;;;;;;23.50;17.97;;;14.10;73.60;;;;;;5021802;28;20211;-67
2022/11/21 13:16:38;;;;;;;25.60;18.70;;;14.10;74.30;;;;;;5016522;28;20218;-66
2022/11/21 13:19:41;;;;;;;27.23;18.53;;;14.00;74.60;;;;;;5020779;28;20205;-67
2022/11/21 13:22:36;;;;;;;27.10;20.43;;;14.00;74.60;;;;;;4996061;28;20288;-67
2022/11/21 13:25:10;;;;;;;27.30;19.37;;;13.90;75.10;;;;;;5028606;28;20254;-67
2022/11/21 13:27:39;;;;;;;30.33;20.23;;;13.90;75.40;;;;;;5028144;28;20269;-67
2022/11/21 13:30:06;;;;;;;30.70;20.00;;;13.80;75.50;;;;;;5026508;28;20233;-67